Time;durP1;ratioP1;P1;durP2;ratioP2;P2;SDS_P1;SDS_P2;PMS_P1;PMS_P2;Temp;Humidity;BMP_temperature;BMP_pressure;BME280_temperature;BME280_humidity;BME280_pressure;Samples;Min_cycle;Max_cycle;Signal;HPM_P1;HPM_P2
2023/03/05 00:02:12;;;;;;;20.92;13.90;;;;;;;;;;4871618;29;20144;-77
2023/03/05 00:04:38;;;;;;;19.23;13.10;;;;;;;;;;4882266;29;20050;-78
2023/03/05 00:07:04;;;;;;;21.38;14.27;;;;;;;;;;4871289;29;20033;-78
2023/03/05 00:09:31;;;;;;;21.50;12.07;;;;;;;;;;4868356;29;20045;-79
2023/03/05 00:11:57;;;;;;;22.85;13.63;;;;;;;;;;4873151;29;20029;-77
2023/03/05 00:14:23;;;;;;;19.67;13.82;;;;;;;;;;4864289;29;20030;-79
2023/03/05 00:16:49;;;;;;;18.50;12.38;;;;;;;;;;4873261;29;20033;-78
2023/03/05 00:19:15;;;;;;;20.90;12.63;;;;;;;;;;4880336;29;20020;-77
2023/03/05 00:21:42;;;;;;;15.75;10.95;;;;;;;;;;4871731;29;20059;-78
2023/03/05 00:24:10;;;;;;;17.40;11.75;;;;;;;;;;4873818;29;20571;-78
2023/03/05 00:26:37;;;;;;;19.38;12.30;;;;;;;;;;4876703;29;20440;-79
2023/03/05 00:29:04;;;;;;;20.73;12.40;;;;;;;;;;4871568;29;20262;-77
2023/03/05 00:31:32;;;;;;;17.02;11.35;;;;;;;;;;4873473;29;20061;-78
2023/03/05 00:34:00;;;;;;;15.40;10.52;;;;;;;;;;4874770;29;20029;-78
2023/03/05 00:36:26;;;;;;;16.23;12.25;;;;;;;;;;4874292;29;20036;-78
2023/03/05 00:38:52;;;;;;;17.77;11.55;;;;;;;;;;4869569;29;20030;-78
2023/03/05 00:41:19;;;;;;;19.98;12.23;;;;;;;;;;4856521;29;20742;-78
2023/03/05 00:43:45;;;;;;;19.33;11.98;;;;;;;;;;4874557;29;20085;-80
2023/03/05 00:46:11;;;;;;;16.38;11.82;;;;;;;;;;4855861;29;20124;-77
2023/03/05 00:48:37;;;;;;;18.42;11.85;;;;;;;;;;4881292;29;20028;-78
2023/03/05 00:51:03;;;;;;;21.33;14.40;;;;;;;;;;4883561;29;20094;-77
2023/03/05 00:53:29;;;;;;;18.73;12.95;;;;;;;;;;4881777;29;20041;-78
2023/03/05 00:55:55;;;;;;;16.90;11.90;;;;;;;;;;4881349;29;20069;-78
2023/03/05 00:58:22;;;;;;;18.33;12.70;;;;;;;;;;4874265;29;20231;-78
2023/03/05 01:00:51;;;;;;;19.20;12.30;;;;;;;;;;4872767;29;20506;-78
2023/03/05 01:03:17;;;;;;;20.65;13.68;;;;;;;;;;4877684;29;20162;-78
2023/03/05 01:05:44;;;;;;;17.65;12.27;;;;;;;;;;4873947;29;20420;-78
2023/03/05 01:08:10;;;;;;;16.85;12.02;;;;;;;;;;4872878;29;20041;-79
2023/03/05 01:10:36;;;;;;;21.20;12.73;;;;;;;;;;4874937;29;20107;-78
2023/03/05 01:13:02;;;;;;;20.80;11.82;;;;;;;;;;4871423;29;20043;-79
2023/03/05 01:15:28;;;;;;;17.77;12.43;;;;;;;;;;4873519;29;20108;-78
2023/03/05 01:17:55;;;;;;;16.38;12.35;;;;;;;;;;4875942;29;20094;-79
2023/03/05 01:20:22;;;;;;;19.25;12.15;;;;;;;;;;4874898;29;20029;-78
2023/03/05 01:22:48;;;;;;;16.30;10.38;;;;;;;;;;4876584;29;20025;-79
2023/03/05 01:25:15;;;;;;;18.27;11.13;;;;;;;;;;4875023;29;20543;-78
2023/03/05 01:27:41;;;;;;;15.68;10.15;;;;;;;;;;4864033;29;20033;-79
2023/03/05 01:30:08;;;;;;;17.58;11.35;;;;;;;;;;4865294;29;20036;-78
2023/03/05 01:32:34;;;;;;;17.15;11.20;;;;;;;;;;4872728;29;20432;-78
2023/03/05 01:35:01;;;;;;;14.43;10.63;;;;;;;;;;4872408;29;20033;-78
2023/03/05 01:37:28;;;;;;;14.38;10.48;;;;;;;;;;4870993;29;21230;-78
2023/03/05 01:39:54;;;;;;;17.20;10.82;;;;;;;;;;4863487;29;20073;-78
2023/03/05 01:42:20;;;;;;;19.20;11.60;;;;;;;;;;4867363;29;20082;-79
2023/03/05 01:45:01;;;;;;;17.50;10.02;;;;;;;;;;4873239;29;20028;-79
2023/03/05 01:47:27;;;;;;;17.38;11.75;;;;;;;;;;4870037;29;20592;-77
2023/03/05 01:49:53;;;;;;;15.57;11.68;;;;;;;;;;4873996;29;20055;-78
2023/03/05 01:52:21;;;;;;;15.57;11.45;;;;;;;;;;4884862;29;20055;-80
2023/03/05 01:54:53;;;;;;;15.25;11.63;;;;;;;;;;4900046;29;20029;-79
2023/03/05 01:57:27;;;;;;;17.60;11.60;;;;;;;;;;4892899;29;20109;-81
2023/03/05 01:59:56;;;;;;;15.83;10.63;;;;;;;;;;4891664;29;20059;-78
2023/03/05 02:02:22;;;;;;;17.83;11.02;;;;;;;;;;4890196;29;20050;-78
2023/03/05 02:04:50;;;;;;;15.40;10.90;;;;;;;;;;4884311;29;20025;-78
2023/03/05 02:07:17;;;;;;;17.27;12.00;;;;;;;;;;4893823;29;20559;-78
2023/03/05 02:09:43;;;;;;;17.95;10.55;;;;;;;;;;4884852;29;20035;-78
2023/03/05 02:12:11;;;;;;;16.42;10.48;;;;;;;;;;4874522;29;20531;-78
2023/03/05 02:14:38;;;;;;;16.05;11.32;;;;;;;;;;4891480;29;20028;-79
2023/03/05 02:17:04;;;;;;;16.85;11.48;;;;;;;;;;4897460;29;20065;-78
2023/03/05 02:19:45;;;;;;;16.10;10.55;;;;;;;;;;4892894;29;20044;-78
2023/03/05 02:22:15;;;;;;;15.80;10.48;;;;;;;;;;4876902;29;20055;-79
2023/03/05 02:24:41;;;;;;;17.08;10.38;;;;;;;;;;4892003;29;20025;-78
2023/03/05 02:27:07;;;;;;;18.40;11.35;;;;;;;;;;4888258;29;20025;-78
2023/03/05 02:29:33;;;;;;;16.90;10.70;;;;;;;;;;4896435;29;20395;-78
2023/03/05 02:32:00;;;;;;;15.45;10.82;;;;;;;;;;4892984;29;20104;-78
2023/03/05 02:34:26;;;;;;;16.80;10.88;;;;;;;;;;4890280;29;20036;-77
2023/03/05 02:36:54;;;;;;;19.10;11.88;;;;;;;;;;4885566;29;20021;-79
2023/03/05 02:39:20;;;;;;;17.48;10.60;;;;;;;;;;4887449;29;20508;-79
2023/03/05 02:41:46;;;;;;;19.55;11.90;;;;;;;;;;4892635;29;20033;-78
2023/03/05 02:44:12;;;;;;;18.17;11.25;;;;;;;;;;4878710;29;20028;-78
2023/03/05 02:46:38;;;;;;;17.92;10.80;;;;;;;;;;4890727;29;20088;-78
2023/03/05 02:49:04;;;;;;;15.55;9.32;;;;;;;;;;4892490;29;20052;-78
2023/03/05 02:51:31;;;;;;;17.60;10.75;;;;;;;;;;4889732;29;20140;-78
2023/03/05 02:53:57;;;;;;;16.38;10.43;;;;;;;;;;4868051;29;20089;-78
2023/03/05 02:56:23;;;;;;;14.00;10.77;;;;;;;;;;4875445;29;20047;-78
2023/03/05 02:58:49;;;;;;;15.55;10.98;;;;;;;;;;4876019;29;20064;-78
2023/03/05 03:01:15;;;;;;;17.02;11.52;;;;;;;;;;4867805;29;20127;-77
2023/03/05 03:03:41;;;;;;;18.80;11.10;;;;;;;;;;4872010;29;20522;-78
2023/03/05 03:06:07;;;;;;;14.88;11.18;;;;;;;;;;4874818;29;20045;-78
2023/03/05 03:08:36;;;;;;;16.95;10.60;;;;;;;;;;4870633;29;20112;-77
2023/03/05 03:11:11;;;;;;;19.23;11.93;;;;;;;;;;4874611;29;20044;-78
2023/03/05 03:13:37;;;;;;;15.32;10.35;;;;;;;;;;4873483;29;20128;-77
2023/03/05 03:16:08;;;;;;;16.02;10.05;;;;;;;;;;4865152;29;20097;-78
2023/03/05 03:18:34;;;;;;;16.27;10.43;;;;;;;;;;4875791;29;20125;-78
2023/03/05 03:21:00;;;;;;;19.33;11.77;;;;;;;;;;4874771;29;20033;-78
2023/03/05 03:23:26;;;;;;;22.38;11.20;;;;;;;;;;4876047;29;20520;-78
2023/03/05 03:25:52;;;;;;;15.52;11.27;;;;;;;;;;4870844;29;20044;-78
2023/03/05 03:28:18;;;;;;;18.23;10.40;;;;;;;;;;4867410;29;20032;-79
2023/03/05 03:30:45;;;;;;;20.48;12.02;;;;;;;;;;4881963;29;20040;-78
2023/03/05 03:33:11;;;;;;;16.83;11.40;;;;;;;;;;4868244;29;20090;-79
2023/03/05 03:35:37;;;;;;;16.15;11.20;;;;;;;;;;4857149;29;20116;-78
2023/03/05 03:38:03;;;;;;;17.80;10.95;;;;;;;;;;4871549;29;20077;-78
2023/03/05 03:40:29;;;;;;;16.75;11.25;;;;;;;;;;4876345;29;20026;-78
2023/03/05 03:42:56;;;;;;;15.75;11.10;;;;;;;;;;4873605;29;20025;-77
2023/03/05 03:45:22;;;;;;;17.02;10.68;;;;;;;;;;4874208;29;20048;-78
2023/03/05 03:47:49;;;;;;;18.45;12.05;;;;;;;;;;4863935;29;20103;-78
2023/03/05 03:50:15;;;;;;;19.20;12.52;;;;;;;;;;4875669;29;20036;-78
2023/03/05 03:52:41;;;;;;;15.40;10.68;;;;;;;;;;4866965;29;20056;-78
2023/03/05 03:55:07;;;;;;;17.70;11.68;;;;;;;;;;4876783;29;20029;-77
2023/03/05 03:57:33;;;;;;;16.17;11.10;;;;;;;;;;4874768;29;20033;-78
2023/03/05 03:59:59;;;;;;;17.60;12.02;;;;;;;;;;4879594;29;20028;-78
2023/03/05 04:02:26;;;;;;;15.85;10.55;;;;;;;;;;4874368;29;20029;-78
2023/03/05 04:04:53;;;;;;;19.60;11.32;;;;;;;;;;4857602;29;20056;-78
2023/03/05 04:07:19;;;;;;;15.82;11.02;;;;;;;;;;4873952;29;20388;-78
2023/03/05 04:09:45;;;;;;;17.92;11.02;;;;;;;;;;4874241;29;20048;-78
2023/03/05 04:12:16;;;;;;;19.02;11.35;;;;;;;;;;4867392;29;20085;-77
2023/03/05 04:14:42;;;;;;;19.80;11.23;;;;;;;;;;4879115;29;20032;-77
2023/03/05 04:17:08;;;;;;;18.27;11.43;;;;;;;;;;4869555;29;20028;-77
2023/03/05 04:19:34;;;;;;;17.60;11.35;;;;;;;;;;4873406;29;20496;-78
2023/03/05 04:22:00;;;;;;;15.25;10.48;;;;;;;;;;4873642;29;20114;-78
2023/03/05 04:24:26;;;;;;;18.75;11.00;;;;;;;;;;4872025;29;20032;-77
2023/03/05 04:26:52;;;;;;;17.33;11.30;;;;;;;;;;4874389;29;20028;-78
2023/03/05 04:29:19;;;;;;;17.67;11.70;;;;;;;;;;4867194;29;20051;-79
2023/03/05 04:31:45;;;;;;;18.17;11.90;;;;;;;;;;4867194;29;20056;-78
2023/03/05 04:34:11;;;;;;;17.90;11.70;;;;;;;;;;4859023;29;20044;-78
2023/03/05 04:36:37;;;;;;;17.00;10.80;;;;;;;;;;4872727;29;20421;-78
2023/03/05 04:39:04;;;;;;;15.80;10.98;;;;;;;;;;4866045;29;20037;-78
2023/03/05 04:41:30;;;;;;;15.93;11.00;;;;;;;;;;4866265;29;20025;-79
2023/03/05 04:43:56;;;;;;;17.17;10.55;;;;;;;;;;4867280;29;20061;-77
2023/03/05 04:46:22;;;;;;;16.88;11.88;;;;;;;;;;4874080;29;20507;-78
2023/03/05 04:48:48;;;;;;;17.25;10.90;;;;;;;;;;4874689;29;20033;-78
2023/03/05 04:51:14;;;;;;;14.32;10.48;;;;;;;;;;4875130;29;20041;-77
2023/03/05 04:53:40;;;;;;;17.48;10.70;;;;;;;;;;4864609;29;20041;-77
2023/03/05 04:56:06;;;;;;;14.82;11.25;;;;;;;;;;4873142;29;20074;-78
2023/03/05 04:58:32;;;;;;;16.70;10.85;;;;;;;;;;4872890;29;20032;-76
2023/03/05 05:01:02;;;;;;;16.30;10.95;;;;;;;;;;4872335;29;20032;-78
2023/03/05 05:03:28;;;;;;;17.40;10.93;;;;;;;;;;4871825;29;20024;-79
2023/03/05 05:05:59;;;;;;;18.13;10.50;;;;;;;;;;4876567;29;20033;-78
2023/03/05 05:08:25;;;;;;;17.73;10.35;;;;;;;;;;4870075;29;20072;-78
2023/03/05 05:11:01;;;;;;;16.85;10.80;;;;;;;;;;4872065;29;20112;-78
2023/03/05 05:13:28;;;;;;;15.80;10.38;;;;;;;;;;4874131;29;20151;-77
2023/03/05 05:15:54;;;;;;;17.52;10.98;;;;;;;;;;4868143;29;20041;-78
2023/03/05 05:18:20;;;;;;;19.10;11.48;;;;;;;;;;4872854;29;20112;-78
2023/03/05 05:20:47;;;;;;;20.13;12.32;;;;;;;;;;4863807;29;20051;-78
2023/03/05 05:23:13;;;;;;;18.70;12.50;;;;;;;;;;4879241;29;20025;-78
2023/03/05 05:25:39;;;;;;;16.27;11.20;;;;;;;;;;4870946;29;20029;-78
2023/03/05 05:28:05;;;;;;;16.05;10.82;;;;;;;;;;4876812;29;20033;-77
2023/03/05 05:30:31;;;;;;;18.67;13.45;;;;;;;;;;4873577;29;20108;-77
2023/03/05 05:32:57;;;;;;;16.27;13.48;;;;;;;;;;4857167;29;20035;-78
2023/03/05 05:35:23;;;;;;;16.60;11.93;;;;;;;;;;4876949;29;20082;-77
2023/03/05 05:37:49;;;;;;;18.45;12.13;;;;;;;;;;4872954;29;20228;-78
2023/03/05 05:40:16;;;;;;;14.68;10.90;;;;;;;;;;4868420;29;20043;-77
2023/03/05 05:42:43;;;;;;;18.33;13.27;;;;;;;;;;4867197;29;20036;-79
2023/03/05 05:45:09;;;;;;;15.57;11.57;;;;;;;;;;4876131;29;20033;-78
2023/03/05 05:47:35;;;;;;;15.98;10.88;;;;;;;;;;4875579;29;20029;-78
2023/03/05 05:50:01;;;;;;;17.10;11.63;;;;;;;;;;4871982;29;20033;-77
2023/03/05 05:52:27;;;;;;;17.13;10.73;;;;;;;;;;4881786;29;20104;-78
2023/03/05 05:54:53;;;;;;;15.85;10.55;;;;;;;;;;4874322;29;20554;-78
2023/03/05 05:57:19;;;;;;;17.85;11.43;;;;;;;;;;4890389;29;20048;-78
2023/03/05 05:59:46;;;;;;;14.25;10.38;;;;;;;;;;4890318;29;20615;-77
2023/03/05 06:02:12;;;;;;;17.45;10.95;;;;;;;;;;4885377;29;20506;-78
2023/03/05 06:04:39;;;;;;;15.60;9.85;;;;;;;;;;4888897;29;20021;-76
2023/03/05 06:07:05;;;;;;;18.13;11.23;;;;;;;;;;4888110;29;20084;-78
2023/03/05 06:09:31;;;;;;;15.75;11.32;;;;;;;;;;4891765;29;20037;-78
2023/03/05 06:11:57;;;;;;;19.30;11.40;;;;;;;;;;4886842;29;20053;-78
2023/03/05 06:14:23;;;;;;;16.00;10.43;;;;;;;;;;4894096;29;20028;-77
2023/03/05 06:16:49;;;;;;;14.43;10.73;;;;;;;;;;4893873;29;20035;-78
2023/03/05 06:19:15;;;;;;;16.67;11.15;;;;;;;;;;4892095;29;20399;-78
2023/03/05 06:21:42;;;;;;;18.52;10.27;;;;;;;;;;4892939;29;20492;-78
2023/03/05 06:24:08;;;;;;;17.02;11.00;;;;;;;;;;4890947;29;20028;-78
2023/03/05 06:26:34;;;;;;;18.25;11.43;;;;;;;;;;4894640;29;20024;-77
2023/03/05 06:29:01;;;;;;;17.13;10.60;;;;;;;;;;4883162;29;20036;-78
2023/03/05 06:31:27;;;;;;;19.05;10.23;;;;;;;;;;4894915;29;20116;-79
2023/03/05 06:33:55;;;;;;;16.30;10.15;;;;;;;;;;4891417;29;20363;-77
2023/03/05 06:36:22;;;;;;;15.48;9.82;;;;;;;;;;4895238;29;20499;-77
2023/03/05 06:38:48;;;;;;;17.83;11.25;;;;;;;;;;4894848;29;20029;-78
2023/03/05 06:41:16;;;;;;;17.20;10.75;;;;;;;;;;4894785;29;20081;-78
2023/03/05 06:43:43;;;;;;;17.50;10.50;;;;;;;;;;4892020;29;20076;-78
2023/03/05 06:46:12;;;;;;;14.68;10.23;;;;;;;;;;4898737;29;20028;-77
2023/03/05 06:48:38;;;;;;;16.38;10.02;;;;;;;;;;4894946;29;20028;-78
2023/03/05 06:51:05;;;;;;;16.55;10.93;;;;;;;;;;4893802;29;20080;-78
2023/03/05 06:53:31;;;;;;;15.73;10.85;;;;;;;;;;4875891;29;20100;-78
2023/03/05 06:56:00;;;;;;;17.05;9.77;;;;;;;;;;4859399;29;20025;-78
2023/03/05 06:58:26;;;;;;;12.95;9.75;;;;;;;;;;4860210;29;20120;-78
2023/03/05 07:00:52;;;;;;;16.42;10.75;;;;;;;;;;4870490;29;20029;-78
2023/03/05 07:03:18;;;;;;;21.27;11.95;;;;;;;;;;4854079;29;20029;-79
2023/03/05 07:05:44;;;;;;;21.60;12.73;;;;;;;;;;4878294;29;20507;-77
2023/03/05 07:08:10;;;;;;;16.60;10.77;;;;;;;;;;4878787;29;20037;-79
2023/03/05 07:10:37;;;;;;;20.77;12.75;;;;;;;;;;4880579;29;20033;-79
2023/03/05 07:13:03;;;;;;;15.70;10.95;;;;;;;;;;4882396;29;20035;-78
2023/03/05 07:15:30;;;;;;;16.48;10.45;;;;;;;;;;4861614;29;20029;-77
2023/03/05 07:17:56;;;;;;;16.52;10.52;;;;;;;;;;4875887;29;20093;-77
2023/03/05 07:20:22;;;;;;;16.02;9.85;;;;;;;;;;4874113;29;20043;-77
2023/03/05 07:22:48;;;;;;;16.90;10.65;;;;;;;;;;4870115;29;20031;-78
2023/03/05 07:25:20;;;;;;;16.98;11.52;;;;;;;;;;4875236;29;20448;-77
2023/03/05 07:27:46;;;;;;;15.82;10.20;;;;;;;;;;4865363;29;20054;-78
2023/03/05 07:30:13;;;;;;;20.48;11.35;;;;;;;;;;4880340;29;20044;-78
2023/03/05 07:32:39;;;;;;;14.45;9.98;;;;;;;;;;4870252;29;20037;-81
2023/03/05 07:35:05;;;;;;;17.65;10.45;;;;;;;;;;4859021;29;20430;-79
2023/03/05 07:37:31;;;;;;;19.63;10.63;;;;;;;;;;4856986;29;20037;-77
2023/03/05 07:39:58;;;;;;;16.08;10.73;;;;;;;;;;4872284;29;20067;-77
2023/03/05 07:42:24;;;;;;;15.85;10.10;;;;;;;;;;4866560;29;20116;-77
2023/03/05 07:44:50;;;;;;;15.65;10.13;;;;;;;;;;4853509;29;20080;-77
2023/03/05 07:47:16;;;;;;;17.35;10.60;;;;;;;;;;4876269;29;20029;-76
2023/03/05 07:49:42;;;;;;;15.75;9.93;;;;;;;;;;4872770;29;20040;-77
2023/03/05 07:52:09;;;;;;;15.98;10.93;;;;;;;;;;4871070;29;20049;-78
2023/03/05 07:54:38;;;;;;;15.70;10.10;;;;;;;;;;4856999;29;20044;-79
2023/03/05 07:57:04;;;;;;;15.38;11.02;;;;;;;;;;4876253;29;20045;-78
2023/03/05 07:59:31;;;;;;;14.82;10.82;;;;;;;;;;4875243;29;20071;-78
2023/03/05 08:01:57;;;;;;;19.98;11.00;;;;;;;;;;4872550;29;20121;-78
2023/03/05 08:04:23;;;;;;;15.75;10.85;;;;;;;;;;4874293;29;20503;-79
2023/03/05 08:06:50;;;;;;;18.00;10.18;;;;;;;;;;4856560;29;20576;-78
2023/03/05 08:09:16;;;;;;;14.48;10.40;;;;;;;;;;4876204;29;20029;-78
2023/03/05 08:11:43;;;;;;;15.30;9.93;;;;;;;;;;4857696;29;20032;-78
2023/03/05 08:14:09;;;;;;;14.88;9.88;;;;;;;;;;4877125;29;20029;-78
2023/03/05 08:16:35;;;;;;;16.73;10.40;;;;;;;;;;4872842;29;20522;-77
2023/03/05 08:19:02;;;;;;;17.08;10.27;;;;;;;;;;4874352;29;20442;-78
2023/03/05 08:21:29;;;;;;;17.85;11.15;;;;;;;;;;4857884;29;20029;-78
2023/03/05 08:23:56;;;;;;;15.30;9.98;;;;;;;;;;4874673;29;20029;-77
2023/03/05 08:26:24;;;;;;;17.33;10.60;;;;;;;;;;4870642;29;20127;-78
2023/03/05 08:28:50;;;;;;;17.65;10.48;;;;;;;;;;4871831;29;20135;-78
2023/03/05 08:31:17;;;;;;;18.88;11.07;;;;;;;;;;4876018;29;20065;-78
2023/03/05 08:33:43;;;;;;;15.98;11.05;;;;;;;;;;4876254;29;20049;-79
2023/03/05 08:36:09;;;;;;;18.70;11.80;;;;;;;;;;4872312;29;21858;-78
2023/03/05 08:38:36;;;;;;;15.70;10.90;;;;;;;;;;4869280;29;20060;-78
2023/03/05 08:41:02;;;;;;;14.38;9.98;;;;;;;;;;4871534;29;20069;-79
2023/03/05 08:43:30;;;;;;;16.98;10.27;;;;;;;;;;4872809;29;20036;-77
2023/03/05 08:45:56;;;;;;;15.45;9.85;;;;;;;;;;4880901;29;20032;-78
2023/03/05 08:48:22;;;;;;;17.33;9.55;;;;;;;;;;4870459;29;20115;-78
2023/03/05 08:50:48;;;;;;;16.85;10.40;;;;;;;;;;4871440;29;20029;-78
2023/03/05 08:53:14;;;;;;;13.60;9.18;;;;;;;;;;4864073;29;20105;-78
2023/03/05 08:55:41;;;;;;;18.42;10.80;;;;;;;;;;4872393;29;20045;-78
2023/03/05 08:58:07;;;;;;;15.13;9.40;;;;;;;;;;4868895;29;20493;-77
2023/03/05 09:00:33;;;;;;;18.05;10.52;;;;;;;;;;4874703;29;20039;-78
2023/03/05 09:02:59;;;;;;;16.83;9.95;;;;;;;;;;4856709;29;20383;-79
2023/03/05 09:05:25;;;;;;;17.10;10.48;;;;;;;;;;4860653;29;20062;-78
2023/03/05 09:07:51;;;;;;;19.77;11.18;;;;;;;;;;4874772;29;20041;-79
2023/03/05 09:10:17;;;;;;;17.75;11.35;;;;;;;;;;4878627;29;20457;-78
2023/03/05 09:12:44;;;;;;;14.75;10.02;;;;;;;;;;4869800;29;20044;-77
2023/03/05 09:15:10;;;;;;;17.02;10.73;;;;;;;;;;4873608;29;20033;-77
2023/03/05 09:17:38;;;;;;;16.85;10.50;;;;;;;;;;4873719;29;20070;-78
2023/03/05 09:20:05;;;;;;;15.70;10.77;;;;;;;;;;4872878;29;20029;-78
2023/03/05 09:22:31;;;;;;;14.90;10.60;;;;;;;;;;4868914;29;20524;-78
2023/03/05 09:24:57;;;;;;;16.67;10.45;;;;;;;;;;4867439;29;20067;-77
2023/03/05 09:27:24;;;;;;;17.70;10.25;;;;;;;;;;4867329;29;20515;-78
2023/03/05 09:29:51;;;;;;;13.95;9.35;;;;;;;;;;4869394;29;20037;-78
2023/03/05 09:32:18;;;;;;;17.70;10.38;;;;;;;;;;4868915;29;20039;-79
2023/03/05 09:34:44;;;;;;;19.23;10.55;;;;;;;;;;4870223;29;20052;-79
2023/03/05 09:37:10;;;;;;;14.35;9.43;;;;;;;;;;4870740;29;20426;-78
2023/03/05 09:39:36;;;;;;;14.75;9.07;;;;;;;;;;4869853;29;20751;-78
2023/03/05 09:42:19;;;;;;;15.35;9.80;;;;;;;;;;4868539;29;20041;-78
2023/03/05 09:44:54;;;;;;;16.63;10.48;;;;;;;;;;4870143;29;20029;-78
2023/03/05 09:47:33;;;;;;;12.77;8.45;;;;;;;;;;4864020;29;20113;-78
2023/03/05 09:50:17;;;;;;;15.70;8.77;;;;;;;;;;4872973;29;20040;-78
2023/03/05 09:52:46;;;;;;;11.63;8.95;;;;;;;;;;4874065;29;20779;-78
2023/03/05 09:55:13;;;;;;;12.25;7.95;;;;;;;;;;4881718;29;20059;-78
2023/03/05 09:57:45;;;;;;;11.98;8.55;;;;;;;;;;4879903;29;20092;-78
2023/03/05 10:00:25;;;;;;;12.02;8.77;;;;;;;;;;4873025;29;20043;-78
2023/03/05 10:02:54;;;;;;;13.10;7.82;;;;;;;;;;4875567;29;20102;-78
2023/03/05 10:05:25;;;;;;;14.45;8.98;;;;;;;;;;4880729;29;20026;-80
2023/03/05 10:07:54;;;;;;;13.82;7.97;;;;;;;;;;4880456;29;20025;-79
2023/03/05 10:10:25;;;;;;;12.23;8.65;;;;;;;;;;4878433;29;20033;-78
2023/03/05 10:12:53;;;;;;;13.27;8.20;;;;;;;;;;4875277;29;20033;-79
2023/03/05 10:15:19;;;;;;;14.20;9.27;;;;;;;;;;4859685;29;20037;-77
2023/03/05 10:17:48;;;;;;;11.40;8.73;;;;;;;;;;4872766;29;20040;-78
2023/03/05 10:20:33;;;;;;;12.18;8.02;;;;;;;;;;4879014;29;20044;-78
2023/03/05 10:23:05;;;;;;;11.30;8.68;;;;;;;;;;4875796;29;20033;-79
2023/03/05 10:25:37;;;;;;;14.57;8.30;;;;;;;;;;4879486;29;20067;-78
2023/03/05 10:28:04;;;;;;;9.65;6.93;;;;;;;;;;4877163;29;20048;-80
2023/03/05 10:30:50;;;;;;;10.25;7.65;;;;;;;;;;4877128;29;20061;-78
2023/03/05 10:33:25;;;;;;;13.77;8.68;;;;;;;;;;4878739;29;20040;-78
2023/03/05 10:35:51;;;;;;;10.75;7.88;;;;;;;;;;4872717;29;20032;-79
2023/03/05 10:38:33;;;;;;;12.23;7.60;;;;;;;;;;4875561;29;20053;-78
2023/03/05 10:41:07;;;;;;;10.98;7.82;;;;;;;;;;4883307;29;20025;-79
2023/03/05 10:43:44;;;;;;;11.80;7.28;;;;;;;;;;4889478;29;20127;-79
2023/03/05 10:46:14;;;;;;;12.48;9.15;;;;;;;;;;4861036;29;20040;-79
2023/03/05 10:48:44;;;;;;;10.63;7.78;;;;;;;;;;4876303;29;20081;-79
2023/03/05 10:51:36;;;;;;;13.60;7.65;;;;;;;;;;4873305;29;20044;-78
2023/03/05 10:54:24;;;;;;;12.20;8.88;;;;;;;;;;4856717;29;20595;-79
2023/03/05 10:57:02;;;;;;;10.90;7.47;;;;;;;;;;4871580;29;20163;-78
2023/03/05 10:59:28;;;;;;;13.07;9.98;;;;;;;;;;4875345;29;20374;-79
2023/03/05 11:02:02;;;;;;;10.90;7.97;;;;;;;;;;4878152;29;20468;-79
2023/03/05 11:04:31;;;;;;;13.70;7.60;;;;;;;;;;4875168;29;20067;-79
2023/03/05 11:06:57;;;;;;;11.60;7.07;;;;;;;;;;4879328;29;20555;-79
2023/03/05 11:09:31;;;;;;;10.88;6.78;;;;;;;;;;4878660;29;20442;-79
2023/03/05 11:12:10;;;;;;;11.35;6.57;;;;;;;;;;4879133;29;20033;-79
2023/03/05 11:14:37;;;;;;;9.48;7.00;;;;;;;;;;4861473;29;20037;-80
2023/03/05 11:17:21;;;;;;;8.98;6.40;;;;;;;;;;4879980;29;20557;-76
2023/03/05 11:19:47;;;;;;;9.85;6.13;;;;;;;;;;4862261;29;20409;-79
2023/03/05 11:22:19;;;;;;;7.28;6.15;;;;;;;;;;4874947;29;20497;-79
2023/03/05 11:25:04;;;;;;;10.52;6.75;;;;;;;;;;4876725;29;20017;-79
2023/03/05 11:27:34;;;;;;;9.70;6.70;;;;;;;;;;4878836;29;20036;-78
2023/03/05 11:30:00;;;;;;;11.68;7.70;;;;;;;;;;4883320;29;20029;-79
2023/03/05 11:32:27;;;;;;;9.70;6.55;;;;;;;;;;4873825;29;20709;-79
2023/03/05 11:34:54;;;;;;;7.43;5.88;;;;;;;;;;4876651;29;20044;-80
2023/03/05 11:37:26;;;;;;;10.77;6.97;;;;;;;;;;4880981;29;20039;-78
2023/03/05 11:40:06;;;;;;;8.57;6.22;;;;;;;;;;4881378;29;20390;-80
2023/03/05 11:42:33;;;;;;;8.88;5.82;;;;;;;;;;4869395;29;20025;-78
2023/03/05 11:45:03;;;;;;;8.10;5.88;;;;;;;;;;4879837;29;20049;-82
2023/03/05 11:47:36;;;;;;;9.35;5.88;;;;;;;;;;4888189;29;20037;-79
2023/03/05 11:50:31;;;;;;;8.80;6.05;;;;;;;;;;4883438;29;20531;-80
2023/03/05 11:53:11;;;;;;;7.33;5.03;;;;;;;;;;4874091;29;20119;-80
2023/03/05 11:55:40;;;;;;;7.80;5.47;;;;;;;;;;4887402;29;20041;-80
2023/03/05 11:58:07;;;;;;;9.23;5.80;;;;;;;;;;4901733;29;20059;-78
2023/03/05 12:00:35;;;;;;;8.20;5.57;;;;;;;;;;4887743;29;20112;-78
2023/03/05 12:03:07;;;;;;;6.80;4.95;;;;;;;;;;4886564;29;20047;-81
2023/03/05 12:05:34;;;;;;;7.90;5.10;;;;;;;;;;4893671;29;20060;-80
2023/03/05 12:08:01;;;;;;;5.88;4.65;;;;;;;;;;4895037;29;20068;-79
2023/03/05 12:10:28;;;;;;;6.00;4.40;;;;;;;;;;4894285;29;20472;-79
2023/03/05 12:13:13;;;;;;;9.20;6.40;;;;;;;;;;4880667;29;20032;-80
2023/03/05 12:15:39;;;;;;;;;;;;;;;;;;4897441;29;20064;-79
2023/03/05 12:18:05;;;;;;;;;;;;;;;;;;4880352;29;19986;-79
2023/03/05 12:20:45;;;;;;;6.10;4.60;;;;;;;;;;4893652;29;19915;-80
2023/03/05 12:23:16;;;;;;;6.35;4.40;;;;;;;;;;4888746;29;20063;-79
2023/03/05 12:26:11;;;;;;;6.10;4.78;;;;;;;;;;4895035;29;20025;-80
2023/03/05 12:28:40;;;;;;;6.05;3.83;;;;;;;;;;4879871;29;20065;-79
2023/03/05 12:31:09;;;;;;;7.75;4.60;;;;;;;;;;4891854;29;20036;-79
2023/03/05 12:33:40;;;;;;;7.22;4.15;;;;;;;;;;4885307;29;20044;-79
2023/03/05 12:36:19;;;;;;;6.30;5.03;;;;;;;;;;4887363;29;20033;-79
2023/03/05 12:38:46;;;;;;;6.07;3.55;;;;;;;;;;4887353;29;20499;-78
2023/03/05 12:41:24;;;;;;;5.78;3.80;;;;;;;;;;4886549;29;20444;-78
2023/03/05 12:44:05;;;;;;;7.15;4.70;;;;;;;;;;4887296;29;20029;-79
2023/03/05 12:46:31;;;;;;;7.60;4.68;;;;;;;;;;4888887;29;20052;-79
2023/03/05 12:48:58;;;;;;;8.45;4.78;;;;;;;;;;4896053;29;20045;-78
2023/03/05 12:51:28;;;;;;;5.38;3.97;;;;;;;;;;4893949;29;20060;-78
2023/03/05 12:53:55;;;;;;;7.00;3.83;;;;;;;;;;4877100;29;20453;-80
2023/03/05 12:56:24;;;;;;;5.95;3.67;;;;;;;;;;4894193;29;20041;-79
2023/03/05 12:58:51;;;;;;;6.93;3.60;;;;;;;;;;4875322;29;20028;-78
2023/03/05 13:01:40;;;;;;;3.95;3.13;;;;;;;;;;4893461;29;20036;-78
2023/03/05 13:04:13;;;;;;;5.68;3.72;;;;;;;;;;4891390;29;20135;-78
2023/03/05 13:06:39;;;;;;;7.30;4.40;;;;;;;;;;4895844;29;20119;-80
2023/03/05 13:09:20;;;;;;;5.95;4.40;;;;;;;;;;4884114;29;20036;-79
2023/03/05 13:11:48;;;;;;;5.97;4.32;;;;;;;;;;4893461;29;20395;-79
2023/03/05 13:14:29;;;;;;;4.63;4.05;;;;;;;;;;4890575;29;20033;-78
2023/03/05 13:16:56;;;;;;;5.18;3.40;;;;;;;;;;4893187;29;20040;-78
2023/03/05 13:19:22;;;;;;;4.03;2.65;;;;;;;;;;4895784;29;20090;-79
2023/03/05 13:22:02;;;;;;;4.35;3.22;;;;;;;;;;4894102;29;20491;-79
2023/03/05 13:24:28;;;;;;;3.50;2.83;;;;;;;;;;4888435;29;20681;-80
2023/03/05 13:26:55;;;;;;;3.78;2.90;;;;;;;;;;4891627;29;20287;-78
2023/03/05 13:29:22;;;;;;;3.60;2.63;;;;;;;;;;4891464;29;20036;-78
2023/03/05 13:31:51;;;;;;;3.92;2.92;;;;;;;;;;4894758;29;20028;-78
2023/03/05 13:34:20;;;;;;;3.58;2.60;;;;;;;;;;4896003;29;20180;-78
2023/03/05 13:36:47;;;;;;;2.58;2.30;;;;;;;;;;4891496;29;20548;-79
2023/03/05 13:39:21;;;;;;;3.00;2.70;;;;;;;;;;4892213;29;20111;-81
2023/03/05 13:41:57;;;;;;;4.10;2.60;;;;;;;;;;4883138;29;20085;-79
2023/03/05 13:44:24;;;;;;;3.20;2.38;;;;;;;;;;4880749;29;20033;-79
2023/03/05 13:46:50;;;;;;;3.95;3.20;;;;;;;;;;4895728;29;20491;-79
2023/03/05 13:49:17;;;;;;;4.88;2.70;;;;;;;;;;4890713;29;20032;-80
2023/03/05 13:51:45;;;;;;;3.00;2.30;;;;;;;;;;4876147;29;20052;-80
2023/03/05 13:54:13;;;;;;;3.20;2.47;;;;;;;;;;4868827;29;20033;-79
2023/03/05 13:56:48;;;;;;;2.72;2.33;;;;;;;;;;4868732;29;20096;-79
2023/03/05 13:59:18;;;;;;;3.15;2.60;;;;;;;;;;4867787;29;20033;-79
2023/03/05 14:01:45;;;;;;;4.05;2.63;;;;;;;;;;4877684;29;20400;-79
2023/03/05 14:04:14;;;;;;;3.50;2.70;;;;;;;;;;4870918;29;20116;-79
2023/03/05 14:06:48;;;;;;;4.18;2.72;;;;;;;;;;4868604;29;20093;-78
2023/03/05 14:09:20;;;;;;;4.30;3.03;;;;;;;;;;4869330;29;20029;-79
2023/03/05 14:12:03;;;;;;;3.08;2.50;;;;;;;;;;4871813;29;20029;-77
2023/03/05 14:14:30;;;;;;;5.28;2.97;;;;;;;;;;4868971;29;20037;-78
2023/03/05 14:17:16;;;;;;;4.10;3.08;;;;;;;;;;4865648;29;20108;-78
2023/03/05 14:19:42;;;;;;;3.03;2.72;;;;;;;;;;4865176;29;20033;-78
2023/03/05 14:22:28;;;;;;;3.72;2.53;;;;;;;;;;4866976;29;20033;-77
2023/03/05 14:24:54;;;;;;;2.42;2.10;;;;;;;;;;4867018;29;20041;-79
2023/03/05 14:27:21;;;;;;;2.70;2.10;;;;;;;;;;4867138;29;20034;-79
2023/03/05 14:29:47;;;;;;;2.20;2.00;;;;;;;;;;4868155;29;20041;-79
2023/03/05 14:32:32;;;;;;;2.20;2.00;;;;;;;;;;4866277;29;20040;-79
2023/03/05 14:35:00;;;;;;;2.80;2.15;;;;;;;;;;4869934;29;20057;-81